Terminal Aerodrome Forecast
Issued by NWS

Home | Current Version | Previous Version | Text Only | Print | Product List | Glossary Off
Versions: 1 2 3 4 5 6 7 8 9 10 11 12 13 14 15 16 17 18 19 20 21 22 23 24 25 26

491
FTUS43 KLOT 152335
TAFDPA
TAF
KDPA 152335Z 1600/1624 27012G17KT 3SM -SN SCT015 OVC025
      TEMPO 1600/1602 1SM -SN BKN015
     FM160600 29012KT 5SM -SN SCT015 OVC025
      TEMPO 1606/1609 1 1/2SM -SN SCT009 OVC015
     FM161400 32012KT 6SM -SN BKN025
     FM161800 33010KT P6SM BKN035=

USA.gov is the U.S. government's official web portal to all federal, state and local government web resources and services.